Provisional Data: West Branch Owego Creek near Speedsville, NY


Please select a monitoring station.
Please select start date.
Please select start date.

Toggle Unit: C/F Toggle Unit: C/F
Sample Time Temperature (C) Temperature (F) Specific Conductivity (mS/cm) pH   Turbidity (NTU+) DO (mg/L)
8/9/2021 12:00:00 AM 14.97 58.946 0.159 6.34 7.91 2.4
8/9/2021 12:15:00 AM 14.98 58.964 0.159 6.35 1.16 2.36
8/9/2021 12:30:00 AM 14.94 58.892 0.159 6.34 0.93 2.34
8/9/2021 12:45:00 AM 14.89 58.802 0.159 6.33 0.88 2.35
8/9/2021 1:00:00 AM 14.83 58.694 0.159 6.33 0.72 2.34
8/9/2021 1:15:00 AM 14.79 58.622 0.16 6.34 0.71 2.28
8/9/2021 1:30:00 AM 14.79 58.622 0.16 6.34 0.72 2.19
8/9/2021 1:45:00 AM 14.77 58.586 0.161 6.35 0.71 2.2
8/9/2021 2:00:00 AM 14.77 58.586 0.16 6.34 1.01 2.2
8/9/2021 2:15:00 AM 14.79 58.622 0.161 6.35 0.94 2.14
8/9/2021 2:30:00 AM 14.61 58.298 0.16 6.33 0.9 2.19
8/9/2021 2:45:00 AM 14.74 58.532 0.16 6.34 1.49 2.13
8/9/2021 3:00:00 AM 14.67 58.406 0.16 6.34 1.16 2.14
8/9/2021 3:15:00 AM 14.63 58.334 0.16 6.33 1.07 2.09
8/9/2021 3:30:00 AM 14.62 58.316 0.159 6.34 1.11 2.05
8/9/2021 3:45:00 AM 14.58 58.244 0.159 6.34 1.02 1.97
8/9/2021 4:00:00 AM 14.58 58.244 0.159 6.34 0.91 1.98
8/9/2021 4:15:00 AM 14.59 58.262 0.159 6.33 1.11 1.98
8/9/2021 4:30:00 AM 14.5 58.1 0.159 6.33 0.96 1.96
8/9/2021 4:45:00 AM 14.57 58.226 0.161 6.34 0.96 2.02
8/9/2021 5:00:00 AM 14.58 58.244 0.158 6.34 0.94 2.01
8/9/2021 5:15:00 AM 14.5 58.1 0.158 6.33 0.8 1.96
8/9/2021 5:30:00 AM 14.41 57.938 0.16 6.33 1.93 1.9
8/9/2021 5:45:00 AM 14.47 58.046 0.159 6.33 1.02 1.93
8/9/2021 6:00:00 AM 14.49 58.082 0.16 6.33 1.31 1.82
8/9/2021 6:15:00 AM 14.39 57.902 0.162 6.34 1.47 1.79
8/9/2021 6:30:00 AM 14.42 57.956 0.158 6.34 5.42 1.91
8/9/2021 6:45:00 AM 14.4 57.92 0.161 6.35 0.85 1.87
8/9/2021 7:00:00 AM 14.4 57.92 0.163 6.36 0.77 1.9
8/9/2021 7:15:00 AM 14.34 57.812 0.164 6.35 0.65 1.86
8/9/2021 7:30:00 AM 14.27 57.686 0.164 6.36 0.64 1.87
8/9/2021 7:45:00 AM 14.36 57.848 0.162 6.35 0.85 2.02
8/9/2021 8:00:00 AM 14.34 57.812 0.164 6.35 2.84 1.93
8/9/2021 8:15:00 AM 14.37 57.866 0.162 6.35 0.75 2
8/9/2021 8:30:00 AM 14.38 57.884 0.162 6.35 1.1 2.05
8/9/2021 8:45:00 AM 14.3 57.74 0.161 6.36 0.53 2.04
8/9/2021 9:00:00 AM 14.28 57.704 0.16 6.34 0.68 2.09
8/9/2021 9:15:00 AM 14.31 57.758 0.16 6.34 1.37 2.15
8/9/2021 9:30:00 AM 14.3 57.74 0.16 6.34 0.75 2.17
8/9/2021 9:45:00 AM 14.37 57.866 0.159 6.34 0.56 2.25
8/9/2021 10:00:00 AM 14.33 57.794 0.16 6.33 0.37 2.2
8/9/2021 10:15:00 AM 14.48 58.064 0.161 6.33 10.63 2.17
8/9/2021 10:30:00 AM 14.26 57.668 0.158 6.29 8.68 2.22
8/9/2021 10:45:00 AM 14.4 57.92 0.159 6.33 0.83 2.21
8/9/2021 11:00:00 AM 14.38 57.884 0.16 6.33 0.65 2.25
8/9/2021 11:15:00 AM 14.36 57.848 0.159 6.33 0.66 2.28
8/9/2021 11:30:00 AM 14.33 57.794 0.159 6.32 0.7 2.44
8/9/2021 11:45:00 AM 14.44 57.992 0.158 6.33 0.58 2.46
8/9/2021 12:00:00 PM 14.45 58.01 0.158 6.33 0.67 2.59
8/9/2021 12:15:00 PM 14.55 58.19 0.158 6.31 3.32 2.65
8/9/2021 12:30:00 PM 14.56 58.208 0.157 6.31 0.9 2.73
8/9/2021 12:45:00 PM 14.62 58.316 0.157 6.33 0.91 2.78
8/9/2021 1:00:00 PM 14.79 58.622 0.156 6.33 0.95 2.96
8/9/2021 1:15:00 PM 15.04 59.072 0.154 6.32 1.1 2.83
8/9/2021 1:30:00 PM 15.24 59.432 0.153 6.31 1.24 3.05
8/9/2021 1:45:00 PM 15.5 59.9 0.154 6.31 3.9 3.17
8/9/2021 2:00:00 PM 15.7 60.26 0.153 6.35 1.74 3.24
8/9/2021 2:15:00 PM 15.89 60.602 0.153 6.34 2.22 3.31
8/9/2021 2:30:00 PM 16.12 61.016 0.152 6.32 1.73 3.46
8/9/2021 2:45:00 PM 16.27 61.286 0.153 6.36 1.88 3.75
8/9/2021 3:00:00 PM 16.43 61.574 0.152 6.36 1.5 3.83
8/9/2021 3:15:00 PM 16.53 61.754 0.152 6.36 1.36 4.06
8/9/2021 3:30:00 PM 16.54 61.772 0.152 6.36 1.3 4.02
8/9/2021 3:45:00 PM 16.66 61.988 0.153 6.37 1.29 4.1
8/9/2021 4:00:00 PM 16.69 62.042 0.152 6.37 1.27 4.04
8/9/2021 4:15:00 PM 16.63 61.934 0.153 6.36 1.6 4.08
8/9/2021 4:30:00 PM 16.69 62.042 0.153 6.36 1.5 4.04
8/9/2021 4:45:00 PM 16.63 61.934 0.154 6.37 1.84 3.94
8/9/2021 5:00:00 PM 16.71 62.078 0.154 6.37 1.35 3.82
8/9/2021 5:15:00 PM 16.47 61.646 0.155 6.36 1.01 3.79
8/9/2021 5:30:00 PM 16.36 61.448 0.155 6.37 1.29 3.7
8/9/2021 5:45:00 PM 16.29 61.322 0.156 6.37 1.1 3.7
8/9/2021 6:00:00 PM 16.23 61.214 0.156 6.35 1.42 3.5
8/9/2021 6:15:00 PM 16.24 61.232 0.156 6.37 1.33 3.59
8/9/2021 6:30:00 PM 16.2 61.16 0.156 6.36 0.95 3.58
8/9/2021 6:45:00 PM 16.14 61.052 0.156 6.36 0.98 3.58
8/9/2021 7:00:00 PM 16.09 60.962 0.156 6.36 0.76 3.6
8/9/2021 7:15:00 PM 16.03 60.854 0.156 6.36 0.84 3.62
8/9/2021 7:30:00 PM 16 60.8 0.158 6.37 0.98 3.68
8/9/2021 7:45:00 PM 15.95 60.71 0.159 6.37 0.8 3.65
8/9/2021 8:00:00 PM 15.87 60.566 0.161 6.38 1.78 3.59
8/9/2021 8:15:00 PM 15.84 60.512 0.161 6.38 0.94 3.43
8/9/2021 8:30:00 PM 15.79 60.422 0.162 6.38 0.83 3.34
8/9/2021 8:45:00 PM 15.73 60.314 0.164 6.4 1.08 3.28
8/9/2021 9:00:00 PM 15.71 60.278 0.164 6.4 0.79 3.16
8/9/2021 9:15:00 PM 15.72 60.296 0.165 6.4 1.1 3.12
8/9/2021 9:30:00 PM 15.68 60.224 0.161 6.37 0.98 2.95
8/9/2021 9:45:00 PM 15.55 59.99 0.163 6.37 0.93 2.68
8/9/2021 10:00:00 PM 15.55 59.99 0.161 6.37 0.87 2.75
8/9/2021 10:15:00 PM 15.54 59.972 0.162 6.37 0.69 2.71
8/9/2021 10:30:00 PM 15.55 59.99 0.161 6.36 0.73 2.71
8/9/2021 10:45:00 PM 15.51 59.918 0.163 6.37 0.98 2.61
8/9/2021 11:00:00 PM 15.5 59.9 0.162 6.35 1.1 2.6
8/9/2021 11:15:00 PM 15.38 59.684 0.161 6.36 0.75 2.44
8/9/2021 11:30:00 PM 15.4 59.72 0.161 6.35 1.06 2.37
8/9/2021 11:45:00 PM 15.47 59.846 0.16 6.35 3.81 2.31
8/10/2021 12:00:00 AM 15.28 59.504 0.158 6.34 1.1 2.31
8/10/2021 12:15:00 AM 15.29 59.522 0.159 6.34 0.87 2.32
8/10/2021 12:30:00 AM 15.28 59.504 0.155 6.32 0.91 2.43
8/10/2021 12:45:00 AM 15.2 59.36 0.154 6.32 0.8 2.32
8/10/2021 1:00:00 AM 15.15 59.27 0.155 6.31 0.77 2.22
8/10/2021 1:15:00 AM 15.11 59.198 0.156 6.32 0.82 2.29
8/10/2021 1:30:00 AM 15.12 59.216 0.155 6.31 0.61 2.27
8/10/2021 1:45:00 AM 15.09 59.162 0.155 6.31 0.72 2.25
8/10/2021 2:00:00 AM 15.03 59.054 0.154 6.31 0.69 2.27
8/10/2021 2:15:00 AM 15.03 59.054 0.156 6.32 0.69 2.15
8/10/2021 2:30:00 AM 15 59 0.156 6.32 0.52 2.15
8/10/2021 2:45:00 AM 14.95 58.91 0.156 6.31 0.46 2.12
8/10/2021 3:00:00 AM 14.92 58.856 0.156 6.32 0.47 2.11
8/10/2021 3:15:00 AM 14.88 58.784 0.157 6.32 0.49 2.06
8/10/2021 3:30:00 AM 14.8 58.64 0.155 6.31 0.66 2.08
8/10/2021 3:45:00 AM 14.74 58.532 0.155 6.31 0.65 2.05
8/10/2021 4:00:00 AM 14.82 58.676 0.157 6.32 0.58 2.06
8/10/2021 4:15:00 AM 14.81 58.658 0.16 6.32 0.44 1.98
8/10/2021 4:30:00 AM 15 59 0.161 6.34 3.46 1.91
8/10/2021 4:45:00 AM 14.86 58.748 0.162 6.33 2.87 1.96
8/10/2021 5:00:00 AM 14.74 58.532 0.161 6.33 0.91 1.93
8/10/2021 5:15:00 AM 14.79 58.622 0.161 6.33 0.77 1.92
8/10/2021 5:30:00 AM 14.77 58.586 0.16 6.33 0.91 1.9
8/10/2021 5:45:00 AM 14.75 58.55 0.158 6.32 0.83 1.96
8/10/2021 6:00:00 AM 14.81 58.658 0.157 6.33 1.7 1.97
8/10/2021 6:15:00 AM 14.84 58.712 0.157 6.32 0.96 2.02
8/10/2021 6:30:00 AM 14.76 58.568 0.157 6.31 0.72 1.94
8/10/2021 6:45:00 AM 14.69 58.442 0.159 6.32 0.96 1.9
8/10/2021 7:00:00 AM 14.72 58.496 0.16 6.33 0.83 1.9
8/10/2021 7:15:00 AM 14.78 58.604 0.159 6.33 0.58 1.9
8/10/2021 7:30:00 AM 14.75 58.55 0.162 6.34 0.71 1.86
8/10/2021 7:45:00 AM 14.73 58.514 0.161 6.34 4.22 1.83
8/10/2021 8:00:00 AM 14.68 58.424 0.161 6.34 0.91 1.86
8/10/2021 8:15:00 AM 14.63 58.334 0.162 6.34 0.71 1.88
8/10/2021 8:30:00 AM 14.71 58.478 0.162 6.35 0.83 1.86
8/10/2021 8:45:00 AM 14.65 58.37 0.163 6.35 0.73 1.87
8/10/2021 9:00:00 AM 14.63 58.334 0.162 6.35 0.87 1.99
8/10/2021 9:15:00 AM 14.66 58.388 0.162 6.36 0.98 2.05
8/10/2021 9:30:00 AM 14.66 58.388 0.163 6.35 1 2.1
8/10/2021 9:45:00 AM 14.63 58.334 0.163 6.35 0.82 2.11
8/10/2021 10:00:00 AM 14.67 58.406 0.165 6.36 1.89 2.08
8/10/2021 10:15:00 AM 14.64 58.352 0.163 6.36 0.93 2.24
8/10/2021 10:30:00 AM 14.64 58.352 0.162 6.35 0.91 2.34
8/10/2021 10:45:00 AM 14.65 58.37 0.162 6.35 1 2.31
8/10/2021 11:00:00 AM 14.67 58.406 0.162 6.36 0.96 2.33
8/10/2021 11:15:00 AM 14.64 58.352 0.162 6.35 1.05 2.37
8/10/2021 11:30:00 AM 14.67 58.406 0.162 6.35 1.69 2.47
8/10/2021 11:45:00 AM 14.71 58.478 0.162 6.35 0.88 2.54
8/10/2021 12:00:00 PM 14.75 58.55 0.159 6.33 1.12 2.51
8/10/2021 12:15:00 PM 14.66 58.388 0.159 6.33 1.34 2.56
8/10/2021 12:30:00 PM 14.71 58.478 0.157 6.34 0.95 2.69
8/10/2021 12:45:00 PM 14.72 58.496 0.157 6.33 1.16 2.82
8/10/2021 1:00:00 PM 14.74 58.532 0.156 6.33 1.26 2.89
8/10/2021 1:15:00 PM 14.92 58.856 0.155 6.32 0.98 3.03
8/10/2021 1:30:00 PM 15.05 59.09 0.155 6.33 0.71 3.15
8/10/2021 1:45:00 PM 15.19 59.342 0.154 6.32 0.99 3.38
8/10/2021 2:00:00 PM 15.3 59.54 0.154 6.32 1.22 3.13
8/10/2021 2:15:00 PM 15.39 59.702 0.154 6.31 1.43 3.22
8/10/2021 2:30:00 PM 15.5 59.9 0.153 6.33 1.27 3.24
8/10/2021 2:45:00 PM 15.56 60.008 0.154 6.33 1.41 3.25
8/10/2021 3:00:00 PM 15.59 60.062 0.155 6.34 1.37 3.32
8/10/2021 3:15:00 PM 15.64 60.152 0.154 6.34 1.33 3.36
8/10/2021 3:30:00 PM 15.67 60.206 0.155 6.34 1.43 3.53
8/10/2021 3:45:00 PM 15.72 60.296 0.155 6.33 1.28 3.49
8/10/2021 4:00:00 PM 15.73 60.314 0.155 6.34 1.74 3.49
8/10/2021 4:15:00 PM 15.71 60.278 0.155 6.33 1.18 3.56
8/10/2021 4:30:00 PM 15.75 60.35 0.156 6.34 2.26 3.67
8/10/2021 4:45:00 PM 15.74 60.332 0.156 6.35 2.27 3.62
8/10/2021 5:00:00 PM 15.79 60.422 0.155 6.35 2.09 3.6
8/10/2021 5:15:00 PM 15.73 60.314 0.156 6.34 2.68 3.64
8/10/2021 5:30:00 PM 15.72 60.296 0.157 6.35 1.99 3.71
8/10/2021 5:45:00 PM 15.62 60.116 0.157 6.34 2.25 3.67
8/10/2021 6:00:00 PM 15.66 60.188 0.156 6.36 1.05 3.58
8/10/2021 6:15:00 PM 15.61 60.098 0.156 6.35 1.05 3.53
8/10/2021 6:30:00 PM 15.57 60.026 0.156 6.34 0.9 3.43
8/10/2021 6:45:00 PM 15.53 59.954 0.156 6.34 1.06 3.35
8/10/2021 7:00:00 PM 15.51 59.918 0.155 6.33 0.93 3.29
8/10/2021 7:15:00 PM 15.44 59.792 0.154 6.33 0.83 3.16
8/10/2021 7:30:00 PM 15.44 59.792 0.156 6.34 4.05 3.09
8/10/2021 7:45:00 PM 15.41 59.738 0.157 6.34 1.72 3.22
8/10/2021 8:00:00 PM 15.37 59.666 0.158 6.34 1.25 3.29
8/10/2021 8:15:00 PM 15.32 59.576 0.159 6.34 1.61 3.05
8/10/2021 8:30:00 PM 15.27 59.486 0.16 6.35 0.78 3.01
8/10/2021 8:45:00 PM 15.31 59.558 0.162 6.35 0.79 3.16
8/10/2021 9:00:00 PM 15.26 59.468 0.162 6.36 0.64 3.06
8/10/2021 9:15:00 PM 15.21 59.378 0.163 6.36 0.97 3.07
8/10/2021 9:30:00 PM 15.24 59.432 0.162 6.36 0.88 2.93
8/10/2021 9:45:00 PM 15.18 59.324 0.162 6.36 0.79 2.77
8/10/2021 10:00:00 PM 15.23 59.414 0.163 6.35 0.98 2.91
8/10/2021 10:15:00 PM 15.14 59.252 0.163 6.35 0.87 2.74
8/10/2021 10:30:00 PM 15.25 59.45 0.162 6.36 0.75 2.8
8/10/2021 10:45:00 PM 15.11 59.198 0.161 6.36 0.88 2.66
8/10/2021 11:00:00 PM 15.09 59.162 0.163 6.36 0.76 2.62
8/10/2021 11:15:00 PM 15.15 59.27 0.163 6.35 0.6 2.6
8/10/2021 11:30:00 PM 15.11 59.198 0.163 6.35 0.9 2.54
8/10/2021 11:45:00 PM 15.15 59.27 0.163 6.35 1.02 2.63
8/11/2021 12:00:00 AM 15.13 59.234 0.163 6.35 0.88 2.53
8/11/2021 12:15:00 AM 15.13 59.234 0.161 6.35 0.6 2.55
8/11/2021 12:30:00 AM 15.12 59.216 0.158 6.33 0.83 2.53
8/11/2021 12:45:00 AM 15.08 59.144 0.157 6.33 0.9 2.51
8/11/2021 1:00:00 AM 15.01 59.018 0.157 6.32 1.78 2.35
8/11/2021 1:15:00 AM 15.09 59.162 0.157 6.32 1.06 2.32
8/11/2021 1:30:00 AM 15.04 59.072 0.157 6.32 1.26 2.29
8/11/2021 1:45:00 AM 14.93 58.874 0.157 6.31 1.08 2.22
8/11/2021 2:00:00 AM 14.86 58.748 0.158 6.32 1.14 2.23
8/11/2021 2:15:00 AM 14.94 58.892 0.157 6.31 1.41 2.21
8/11/2021 2:30:00 AM 14.85 58.73 0.157 6.32 1.14 2.2
8/11/2021 2:45:00 AM 14.85 58.73 0.157 6.3 1.24 2.17
8/11/2021 3:00:00 AM 14.8 58.64 0.157 6.31 1.11 2.09
8/11/2021 3:15:00 AM 14.76 58.568 0.158 6.3 1.32 2.12
8/11/2021 3:30:00 AM 14.86 58.748 0.157 6.31 4.58 2.1
8/11/2021 3:45:00 AM 14.88 58.784 0.157 6.31 1.49 2.08
8/11/2021 4:00:00 AM 14.66 58.388 0.158 6.31 0.48 2.03
8/11/2021 4:15:00 AM 14.67 58.406 0.158 6.31 1.04 2.02
8/11/2021 4:30:00 AM 14.79 58.622 0.158 6.31 0.84 2.01
8/11/2021 4:45:00 AM 14.63 58.334 0.158 6.31 0.75 1.99
8/11/2021 5:00:00 AM 14.63 58.334 0.159 6.31 0.74 1.92
8/11/2021 5:15:00 AM 14.64 58.352 0.159 6.31 0.84 1.92
8/11/2021 5:30:00 AM 14.69 58.442 0.162 6.32 1.08 1.9
8/11/2021 5:45:00 AM 14.73 58.514 0.162 6.34 0.94 1.91
8/11/2021 6:00:00 AM 14.58 58.244 0.162 6.33 0.75 1.79
8/11/2021 6:15:00 AM 14.72 58.496 0.161 6.33 1.05 1.83
8/11/2021 6:30:00 AM 15.02 59.036 0.155 6.32 1.62 2.06
8/11/2021 6:45:00 AM 14.68 58.424 0.159 6.33 3.35 1.87
8/11/2021 7:00:00 AM 14.67 58.406 0.16 6.32 1.89 1.83
8/11/2021 7:15:00 AM 14.61 58.298 0.162 6.33 1.84 1.84
8/11/2021 7:30:00 AM 14.57 58.226 0.163 6.34 0.82 1.79
8/11/2021 7:45:00 AM 14.57 58.226 0.163 6.33 0.65 1.8
8/11/2021 8:00:00 AM 14.53 58.154 0.165 6.35 0.76 1.79
8/11/2021 8:15:00 AM 14.65 58.37 0.162 6.34 0.78 1.85
8/11/2021 8:30:00 AM 14.6 58.28 0.166 6.36 0.91 1.76
8/11/2021 8:45:00 AM 14.66 58.388 0.166 6.36 1.23 1.87
8/11/2021 9:00:00 AM 14.6 58.28 0.169 6.36 1 1.77
8/11/2021 9:15:00 AM 14.62 58.316 0.165 6.34 0.68 2.02
8/11/2021 9:30:00 AM 14.77 58.586 0.16 6.33 1.68 1.98
8/11/2021 9:45:00 AM 14.5 58.1 0.164 6.34 1.01 2.04
8/11/2021 10:00:00 AM 14.69 58.442 0.162 6.34 1.66 2.07
8/11/2021 10:15:00 AM 14.59 58.262 0.164 6.34 0.8 2.03
8/11/2021 10:30:00 AM 14.54 58.172 0.163 6.35 0.64 2.07
8/11/2021 10:45:00 AM 14.58 58.244 0.163 6.35 3.8 2.2
8/11/2021 11:00:00 AM 14.6 58.28 0.162 6.34 0.71 2.43
8/11/2021 11:15:00 AM 14.61 58.298 0.161 6.34 1.05 2.45
8/11/2021 11:30:00 AM 14.57 58.226 0.16 6.34 1.18 2.57
8/11/2021 11:45:00 AM 14.61 58.298 0.161 6.34 0.76 2.66
8/11/2021 12:00:00 PM 14.61 58.298 0.161 6.35 0.87 2.71
8/11/2021 12:15:00 PM 14.69 58.442 0.16 6.34 1.34 2.85
8/11/2021 12:30:00 PM 14.73 58.514 0.159 6.33 1.44 2.84
8/11/2021 12:45:00 PM 14.77 58.586 0.156 6.32 1.5 2.96
8/11/2021 1:00:00 PM 14.82 58.676 0.154 6.31 1.22 2.91
8/11/2021 1:15:00 PM 14.88 58.784 0.16 6.36 1.04 3.48
8/11/2021 1:30:00 PM 14.97 58.946 0.161 6.36 1.1 3.73
8/11/2021 1:45:00 PM 15.04 59.072 0.162 6.37 0.91 3.96
8/11/2021 2:00:00 PM 15.05 59.09 0.163 6.39 0.56 4.34
8/11/2021 2:15:00 PM 15.12 59.216 0.164 6.39 0.77 4.5
8/11/2021 2:30:00 PM 15.29 59.522 0.163 6.39 2.3 4.57
8/11/2021 2:45:00 PM 15.39 59.702 0.16 6.36 0.9 4.26
8/11/2021 3:00:00 PM 15.45 59.81 0.161 6.37 0.86 4.25
8/11/2021 3:15:00 PM 15.5 59.9 0.158 6.35 1.58 3.87
8/11/2021 3:30:00 PM 15.62 60.116 0.16 6.36 1.43 4.06
8/11/2021 3:45:00 PM 15.6 60.08 0.159 6.35 1.63 4.02
8/11/2021 4:00:00 PM 15.66 60.188 0.158 6.36 1.2 4.13
8/11/2021 4:15:00 PM 15.66 60.188 0.157 6.34 1.35 3.95
8/11/2021 4:30:00 PM 15.66 60.188 0.158 6.36 1.14 4.09
8/11/2021 4:45:00 PM 15.68 60.224 0.159 6.35 0.96 4.11
8/11/2021 5:00:00 PM 15.72 60.296 0.158 6.36 1.28 4.1
8/11/2021 5:15:00 PM 15.64 60.152 0.158 6.35 1.75 3.65
8/11/2021 5:30:00 PM 15.66 60.188 0.158 6.35 1.36 3.56
8/11/2021 5:45:00 PM 15.79 60.422 0.156 6.34 1.99 3.37
8/11/2021 6:00:00 PM 15.65 60.17 0.159 6.36 1.47 3.74
8/11/2021 6:15:00 PM 15.65 60.17 0.159 6.36 1.26 3.83
8/11/2021 6:30:00 PM 15.63 60.134 0.158 6.35 1.4 3.51
8/11/2021 6:45:00 PM 15.62 60.116 0.16 6.36 1.41 3.66
8/11/2021 7:00:00 PM 15.59 60.062 0.16 6.36 1.46 3.61
8/11/2021 7:15:00 PM 15.54 59.972 0.159 6.36 2.04 3.45
8/11/2021 7:30:00 PM 15.5 59.9 0.16 6.36 1.05 3.49
8/11/2021 7:45:00 PM 15.47 59.846 0.16 6.36 1 3.4
8/11/2021 8:00:00 PM 15.43 59.774 0.16 6.35 1.2 3.32
8/11/2021 8:15:00 PM 15.41 59.738 0.16 6.36 1.09 3.17
8/11/2021 8:30:00 PM 15.36 59.648 0.163 6.37 1.27 3.23
8/11/2021 8:45:00 PM 15.33 59.594 0.165 6.37 0.93 3.32
8/11/2021 9:00:00 PM 15.28 59.504 0.165 6.38 1.14 3.2
8/11/2021 9:15:00 PM 15.33 59.594 0.164 6.38 1.3 3.09
8/11/2021 9:30:00 PM 15.35 59.63 0.164 6.37 1.92 3.09
8/11/2021 9:45:00 PM 15.29 59.522 0.166 6.38 1.35 2.94
8/11/2021 10:00:00 PM 15.26 59.468 0.164 6.37 0.94 2.86
8/11/2021 10:15:00 PM 15.3 59.54 0.165 6.36 0.89 2.83
8/11/2021 10:30:00 PM 15.23 59.414 0.164 6.37 1.18 2.78
8/11/2021 10:45:00 PM 15.18 59.324 0.163 6.37 0.65 2.65
8/11/2021 11:00:00 PM 15.16 59.288 0.162 6.34 0.87 2.57
8/11/2021 11:15:00 PM 15.18 59.324 0.162 6.34 0.77 2.5
8/11/2021 11:30:00 PM 15.09 59.162 0.162 6.34 0.91 2.47
8/11/2021 11:45:00 PM 15.05 59.09 0.161 6.34 0.66 2.37
8/12/2021 12:00:00 AM 15.11 59.198 0.161 6.33 1.16 2.4
8/12/2021 12:15:00 AM 15.05 59.09 0.16 6.33 0.97 2.33
8/12/2021 12:30:00 AM 15.03 59.054 0.162 6.33 0.97 2.3
8/12/2021 12:45:00 AM 14.98 58.964 0.161 6.34 0.97 2.15
8/12/2021 1:00:00 AM 15.01 59.018 0.159 6.32 1.43 2.14
8/12/2021 1:15:00 AM 15.03 59.054 0.161 6.33 1.39 2.13
8/12/2021 1:30:00 AM 14.93 58.874 0.161 6.32 1.74 2.16
8/12/2021 1:45:00 AM 14.92 58.856 0.161 6.33 0.8 2.06
8/12/2021 2:00:00 AM 14.91 58.838 0.162 6.32 1.35 1.97
8/12/2021 2:15:00 AM 14.9 58.82 0.161 6.32 1.04 2.08
8/12/2021 2:30:00 AM 14.86 58.748 0.161 6.32 1.39 2.04
8/12/2021 2:45:00 AM 14.92 58.856 0.16 6.32 0.99 2.03
8/12/2021 3:00:00 AM 14.85 58.73 0.162 6.34 1.03 1.98
8/12/2021 3:15:00 AM 14.77 58.586 0.162 6.34 0.84 2.02
8/12/2021 3:30:00 AM 14.84 58.712 0.161 6.33 0.9 1.95
8/12/2021 3:45:00 AM 14.79 58.622 0.162 6.33 1.09 1.95
8/12/2021 4:00:00 AM 14.74 58.532 0.163 6.34 1.03 1.9
8/12/2021 4:15:00 AM 14.79 58.622 0.164 6.35 1.01 1.84
8/12/2021 4:30:00 AM 14.72 58.496 0.162 6.34 0.97 1.91
8/12/2021 4:45:00 AM 14.76 58.568 0.161 6.32 0.94 1.82
8/12/2021 5:00:00 AM 14.81 58.658 0.16 6.32 2.66 1.91
8/12/2021 5:15:00 AM 14.67 58.406 0.161 6.33 2.21 1.8
8/12/2021 5:30:00 AM 14.77 58.586 0.159 6.31 1.35 1.79
8/12/2021 5:45:00 AM 14.71 58.478 0.16 6.32 1.28 1.76
8/12/2021 6:00:00 AM 14.63 58.334 0.16 6.3 1.82 1.78
8/12/2021 6:15:00 AM 14.59 58.262 0.161 6.31 1.27 1.78
8/12/2021 6:30:00 AM 14.53 58.154 0.161 6.32 1.96 1.77
8/12/2021 6:45:00 AM 14.98 58.964 0.157 6.31 2.69 1.81
8/12/2021 7:00:00 AM 14.66 58.388 0.16 6.31 0.88 1.77
8/12/2021 7:15:00 AM 14.8 58.64 0.161 6.33 1.45 1.77
8/12/2021 7:30:00 AM 14.71 58.478 0.163 6.33 1.21 1.74
8/12/2021 7:45:00 AM 14.78 58.604 0.162 6.32 1.65 1.78
8/12/2021 8:00:00 AM 14.75 58.55 0.162 6.32 1.46 1.84
8/12/2021 8:15:00 AM 15 59 0.16 6.33 3.1 1.8
8/12/2021 8:30:00 AM 14.78 58.604 0.162 6.32 1.51 1.79
8/12/2021 8:45:00 AM 14.8 58.64 0.163 6.33 1.45 1.79
8/12/2021 9:00:00 AM 14.92 58.856 0.161 6.32 1.94 1.79
8/12/2021 9:15:00 AM 14.76 58.568 0.161 6.31 1.43 1.82
8/12/2021 9:30:00 AM 14.92 58.856 0.16 6.31 2.62 1.83
8/12/2021 9:45:00 AM 14.73 58.514 0.161 6.33 2.57 1.89
8/12/2021 10:00:00 AM 14.69 58.442 0.161 6.33 2.17 1.82
8/12/2021 10:15:00 AM 14.64 58.352 0.159 6.3 1.62 1.87
8/12/2021 10:30:00 AM 14.72 58.496 0.159 6.32 1.72 1.92
8/12/2021 10:45:00 AM 14.69 58.442 0.16 6.33 1.26 1.93
8/12/2021 11:00:00 AM 14.69 58.442 0.161 6.33 1.17 2.17
8/12/2021 11:15:00 AM 14.73 58.514 0.162 6.33 1.32 2.1
8/12/2021 11:30:00 AM 14.76 58.568 0.162 6.33 1.12 2.23
8/12/2021 11:45:00 AM 14.77 58.586 0.161 6.33 1.12 2.22
8/12/2021 12:00:00 PM 14.84 58.712 0.159 6.34 1.09 2.32
8/12/2021 12:15:00 PM 14.8 58.64 0.159 6.32 1.44 2.18
8/12/2021 12:30:00 PM 14.88 58.784 0.157 6.32 1.14 2.26
8/12/2021 12:45:00 PM 14.81 58.658 0.158 6.32 1.24 2.34
8/12/2021 1:00:00 PM 14.89 58.802 0.158 6.31 2.47 2.57
8/12/2021 1:15:00 PM 15.14 59.252 0.157 6.32 1.12 2.75
8/12/2021 1:30:00 PM 15.47 59.846 0.154 6.31 1.72 2.67
8/12/2021 1:45:00 PM 15.63 60.134 0.154 6.31 1.71 2.65
8/12/2021 2:00:00 PM 15.71 60.278 0.152 6.31 2.94 2.67
8/12/2021 2:15:00 PM 15.78 60.404 0.155 6.32 3.11 2.82
8/12/2021 2:30:00 PM 15.89 60.602 0.154 6.32 2.82 3.06
8/12/2021 2:45:00 PM 16.09 60.962 0.156 6.32 2.59 3.37
8/12/2021 3:00:00 PM 16.26 61.268 0.155 6.34 1.5 3.55
8/12/2021 3:15:00 PM 16.26 61.268 0.155 6.33 1.64 3.44
8/12/2021 3:30:00 PM 16.27 61.286 0.154 6.33 1.54 3.41
8/12/2021 3:45:00 PM 16.29 61.322 0.154 6.32 2.06 3.21
8/12/2021 4:00:00 PM 16.16 61.088 0.155 6.34 1.93 3.24
8/12/2021 4:15:00 PM 16.22 61.196 0.155 6.34 1.8 3.25
8/12/2021 4:30:00 PM 16.1 60.98 0.158 6.35 1.54 3.42
8/12/2021 4:45:00 PM 16.12 61.016 0.16 6.36 1.48 3.76
8/12/2021 5:00:00 PM 16.08 60.944 0.16 6.36 2.85 3.79
8/12/2021 5:15:00 PM 16.07 60.926 0.157 6.35 4.39 3.41
8/12/2021 5:30:00 PM 16.04 60.872 0.158 6.35 1.4 3.39
8/12/2021 5:45:00 PM 15.97 60.746 0.158 6.35 2.11 3.42
8/12/2021 6:00:00 PM 15.98 60.764 0.157 6.34 2.01 3.3
8/12/2021 6:15:00 PM 15.95 60.71 0.158 6.34 4.03 3.3
8/12/2021 6:30:00 PM 15.9 60.62 0.158 6.34 1.17 3.18
8/12/2021 6:45:00 PM 15.89 60.602 0.158 6.34 1.05 3.05
8/12/2021 7:00:00 PM 15.84 60.512 0.159 6.34 1.32 3.18
8/12/2021 7:15:00 PM 15.77 60.386 0.158 6.34 1.06 3.13
8/12/2021 7:30:00 PM 15.78 60.404 0.159 6.33 1.25 3.11
8/12/2021 7:45:00 PM 15.71 60.278 0.159 6.34 1.33 3.1
8/12/2021 8:00:00 PM 15.69 60.242 0.16 6.35 1.16 3.02
8/12/2021 8:15:00 PM 15.67 60.206 0.161 6.35 0.95 2.86
8/12/2021 8:30:00 PM 15.7 60.26 0.161 6.35 1.15 2.79
8/12/2021 8:45:00 PM 15.59 60.062 0.161 6.33 1.04 2.7
8/12/2021 9:00:00 PM 15.57 60.026 0.161 6.34 0.72 2.62
8/12/2021 9:15:00 PM 15.57 60.026 0.162 6.35 1.23 2.55
8/12/2021 9:30:00 PM 15.5 59.9 0.161 6.34 1.02 2.47
8/12/2021 9:45:00 PM 15.56 60.008 0.161 6.34 1.04 2.43
8/12/2021 10:00:00 PM 15.48 59.864 0.16 6.34 0.83 2.49
8/12/2021 10:15:00 PM 15.45 59.81 0.16 6.33 1 2.48
8/12/2021 10:30:00 PM 15.45 59.81 0.16 6.34 1.08 2.42
8/12/2021 10:45:00 PM 15.41 59.738 0.16 6.32 0.94 2.3
8/12/2021 11:00:00 PM 15.44 59.792 0.16 6.34 0.97 2.35
8/12/2021 11:15:00 PM 15.27 59.486 0.161 6.33 0.93 2.25
8/12/2021 11:30:00 PM 15.21 59.378 0.16 6.33 1.06 2.25
8/12/2021 11:45:00 PM 15.16 59.288 0.159 6.32 0.85 2.21
8/13/2021 12:00:00 AM 15.18 59.324 0.159 6.32 0.65 2.2
8/13/2021 12:15:00 AM 15.12 59.216 0.159 6.32 1.08 2.13
8/13/2021 12:30:00 AM 15.16 59.288 0.161 6.32 1.13 2.1
8/13/2021 12:45:00 AM 15.18 59.324 0.161 6.33 1.11 2.06
8/13/2021 1:00:00 AM 15.1 59.18 0.16 6.32 1.22 2.04
8/13/2021 1:15:00 AM 15.14 59.252 0.16 6.32 1.4 1.95
8/13/2021 1:30:00 AM 15.07 59.126 0.159 6.31 1.43 1.93
8/13/2021 1:45:00 AM 15.01 59.018 0.159 6.31 1.12 1.97
8/13/2021 2:00:00 AM 14.98 58.964 0.159 6.3 0.89 1.91
8/13/2021 2:15:00 AM 15 59 0.158 6.3 0.74 1.91
8/13/2021 2:30:00 AM 14.96 58.928 0.159 6.31 0.91 1.91
8/13/2021 2:45:00 AM 14.96 58.928 0.158 6.3 0.62 1.89
8/13/2021 3:00:00 AM 15.16 59.288 0.158 6.31 1.36 1.89
8/13/2021 3:15:00 AM 14.92 58.856 0.159 6.31 1 1.87
8/13/2021 3:30:00 AM 14.91 58.838 0.16 6.31 0.95 1.83
8/13/2021 3:45:00 AM 14.94 58.892 0.159 6.31 1.23 1.8
8/13/2021 4:00:00 AM 14.9 58.82 0.158 6.31 0.75 1.8
8/13/2021 4:15:00 AM 14.86 58.748 0.158 6.3 0.81 1.77
8/13/2021 4:30:00 AM 14.83 58.694 0.158 6.3 0.8 1.76
8/13/2021 4:45:00 AM 14.87 58.766 0.159 6.3 0.79 1.79
8/13/2021 5:00:00 AM 14.8 58.64 0.159 6.31 0.75 1.73
8/13/2021 5:15:00 AM 14.75 58.55 0.16 6.3 1.24 1.69
8/13/2021 5:30:00 AM 14.89 58.802 0.158 6.31 1.24 1.78
8/13/2021 5:45:00 AM 14.74 58.532 0.159 6.3 1.35 1.69
8/13/2021 6:00:00 AM 14.98 58.964 0.158 6.3 1.95 1.86
8/13/2021 6:15:00 AM 14.76 58.568 0.158 6.3 1.5 1.65
8/13/2021 6:30:00 AM 14.67 58.406 0.158 6.3 1.42 1.65
8/13/2021 6:45:00 AM 14.75 58.55 0.158 6.3 1.18 1.69
8/13/2021 7:00:00 AM 14.76 58.568 0.157 6.3 1.12 1.71
8/13/2021 7:15:00 AM 14.85 58.73 0.158 6.3 1.67 1.74
8/13/2021 7:30:00 AM 14.7 58.46 0.159 6.3 1.19 1.66
8/13/2021 7:45:00 AM 14.68 58.424 0.158 6.3 2.03 1.63
8/13/2021 8:00:00 AM 14.65 58.37 0.158 6.3 0.97 1.65
8/13/2021 8:15:00 AM 14.75 58.55 0.158 6.31 1.22 1.63
8/13/2021 8:30:00 AM 14.79 58.622 0.157 6.3 1.1 1.66
8/13/2021 8:45:00 AM 14.62 58.316 0.158 6.3 0.88 1.72
8/13/2021 9:00:00 AM 14.65 58.37 0.158 6.3 0.84 1.72
8/13/2021 9:15:00 AM 14.64 58.352 0.158 6.3 1.06 1.68
8/13/2021 9:30:00 AM 14.57 58.226 0.158 6.29 0.67 1.72
8/13/2021 9:45:00 AM 14.61 58.298 0.158 6.3 1.03 1.75
8/13/2021 10:00:00 AM 14.6 58.28 0.159 6.3 0.58 1.74
8/13/2021 10:15:00 AM 14.59 58.262 0.16 6.3 1.22 1.7
8/13/2021 10:30:00 AM 14.61 58.298 0.159 6.31 0.67 1.73
8/13/2021 10:45:00 AM 14.77 58.586 0.161 6.32 1.87 1.7
8/13/2021 11:00:00 AM 14.65 58.37 0.162 6.31 1.05 1.8
8/13/2021 11:15:00 AM 14.72 58.496 0.161 6.33 1.07 1.77
8/13/2021 11:30:00 AM 14.77 58.586 0.163 6.33 1.03 1.87
8/13/2021 11:45:00 AM 14.7 58.46 0.163 6.33 2.2 2
8/13/2021 12:00:00 PM 14.74 58.532 0.164 6.34 2.17 2.17
8/13/2021 12:15:00 PM 14.79 58.622 0.167 6.34 1.48 2.25
8/13/2021 12:30:00 PM 14.78 58.604 0.164 6.34 1.42 2.42
8/13/2021 12:45:00 PM 14.83 58.694 0.165 6.34 1.47 2.38
8/13/2021 1:00:00 PM 14.97 58.946 0.163 6.33 0.81 2.39
8/13/2021 1:15:00 PM 15.17 59.306 0.16 6.32 1.04 2.39
8/13/2021 1:30:00 PM 15.47 59.846 0.159 6.32 0.84 2.82
8/13/2021 1:45:00 PM 15.7 60.26 0.157 6.33 1.15 3.07
8/13/2021 2:00:00 PM 15.96 60.728 0.155 6.32 0.95 3.16
8/13/2021 2:15:00 PM 16.14 61.052 0.152 6.31 1.11 3.09
8/13/2021 2:30:00 PM 16.3 61.34 0.151 6.31 1.57 3.24
8/13/2021 2:45:00 PM 16.46 61.628 0.151 6.31 1.11 3.2
8/13/2021 3:00:00 PM 16.58 61.844 0.153 6.33 1.14 3.49
8/13/2021 3:15:00 PM 16.67 62.006 0.154 6.32 0.88 3.57
8/13/2021 3:30:00 PM 16.75 62.15 0.155 6.34 1.05 3.67
8/13/2021 3:45:00 PM 16.78 62.204 0.156 6.34 0.95 3.74
8/13/2021 4:00:00 PM 16.85 62.33 0.155 6.34 1.24 3.68
8/13/2021 4:15:00 PM 16.72 62.096 0.156 6.34 1.18 3.57
8/13/2021 4:30:00 PM 16.67 62.006 0.158 6.35 0.88 3.46
8/13/2021 4:45:00 PM 16.61 61.898 0.158 6.34 0.89 3.37
8/13/2021 5:00:00 PM 16.65 61.97 0.157 6.35 0.77 3.39
8/13/2021 5:15:00 PM 16.65 61.97 0.157 6.34 0.85 3.46
8/13/2021 5:30:00 PM 16.64 61.952 0.157 6.34 0.95 3.41
8/13/2021 5:45:00 PM 16.57 61.826 0.156 6.32 0.82 3.4
8/13/2021 6:00:00 PM 16.55 61.79 0.157 6.34 0.96 3.27
8/13/2021 6:15:00 PM 16.52 61.736 0.161 6.36 11.36 3.49
8/13/2021 6:30:00 PM 16.47 61.646 0.161 6.37 0.84 3.36
8/13/2021 6:45:00 PM 16.43 61.574 0.161 6.37 0.86 3.32
8/13/2021 7:00:00 PM 16.39 61.502 0.161 6.36 0.67 3.27
8/13/2021 7:15:00 PM 16.38 61.484 0.161 6.36 0.74 3.17
8/13/2021 7:30:00 PM 16.4 61.52 0.161 6.36 2.36 3.13
8/13/2021 7:45:00 PM 16.41 61.538 0.16 6.35 1.01 3.01
8/13/2021 8:00:00 PM 16.26 61.268 0.161 6.36 0.72 2.82
8/13/2021 8:15:00 PM 16.16 61.088 0.162 6.35 0.97 2.79
8/13/2021 8:30:00 PM 16.2 61.16 0.161 6.35 0.93 2.8
8/13/2021 8:45:00 PM 16.06 60.908 0.16 6.34 1.02 2.72
8/13/2021 9:00:00 PM 16.13 61.034 0.161 6.34 0.96 2.65
8/13/2021 9:15:00 PM 16.03 60.854 0.162 6.36 0.98 2.57
8/13/2021 9:30:00 PM 16.02 60.836 0.16 6.34 0.82 2.52
8/13/2021 9:45:00 PM 15.95 60.71 0.16 6.33 0.92 2.46
8/13/2021 10:00:00 PM 15.95 60.71 0.159 6.33 0.75 2.45
8/13/2021 10:15:00 PM 15.95 60.71 0.159 6.33 1.45 2.32
8/13/2021 10:30:00 PM 15.83 60.494 0.157 6.32 1.01 2.26
8/13/2021 10:45:00 PM 15.76 60.368 0.157 6.31 1.04 2.25
8/13/2021 11:00:00 PM 15.82 60.476 0.157 6.31 1.05 2.24
8/13/2021 11:15:00 PM 15.8 60.44 0.157 6.31 1.74 2.18
8/13/2021 11:30:00 PM 15.71 60.278 0.157 6.31 1.2 2.17
8/13/2021 11:45:00 PM 15.72 60.296 0.158 6.3 1.04 2.13
8/14/2021 12:00:00 AM 15.68 60.224 0.159 6.32 0.88 2.13
8/14/2021 12:15:00 AM 15.62 60.116 0.159 6.32 0.99 2.13
8/14/2021 12:30:00 AM 15.63 60.134 0.159 6.32 1.06 2.12
8/14/2021 12:45:00 AM 15.6 60.08 0.159 6.32 1.04 2.06
8/14/2021 1:00:00 AM 15.54 59.972 0.159 6.32 1.32 2.03
8/14/2021 1:15:00 AM 15.55 59.99 0.158 6.31 1.2 2
8/14/2021 1:30:00 AM 15.51 59.918 0.159 6.31 0.89 1.97
8/14/2021 1:45:00 AM 15.4 59.72 0.159 6.3 1.93 1.95
8/14/2021 2:00:00 AM 15.43 59.774 0.158 6.3 1.01 1.95
8/14/2021 2:15:00 AM 15.37 59.666 0.158 6.3 1.21 1.89
8/14/2021 2:30:00 AM 15.36 59.648 0.157 6.29 0.69 1.9
8/14/2021 2:45:00 AM 15.26 59.468 0.158 6.29 0.95 1.85
8/14/2021 3:00:00 AM 15.28 59.504 0.159 6.3 0.9 1.83
8/14/2021 3:15:00 AM 15.32 59.576 0.16 6.31 0.72 1.82
8/14/2021 3:30:00 AM 15.17 59.306 0.16 6.31 0.95 1.79
8/14/2021 3:45:00 AM 15.17 59.306 0.16 6.31 0.55 1.74
8/14/2021 4:00:00 AM 15.16 59.288 0.159 6.3 1.19 1.76
8/14/2021 4:15:00 AM 15.24 59.432 0.159 6.31 0.65 1.81
8/14/2021 4:30:00 AM 15.11 59.198 0.159 6.31 0.52 1.74
8/14/2021 4:45:00 AM 15.07 59.126 0.159 6.3 0.46 1.7
8/14/2021 5:00:00 AM 15.06 59.108 0.159 6.3 0.6 1.69
8/14/2021 5:15:00 AM 14.98 58.964 0.159 6.3 0.55 1.64
8/14/2021 5:30:00 AM 15.1 59.18 0.16 6.31 1.08 1.61
8/14/2021 5:45:00 AM 15.04 59.072 0.159 6.3 0.81 1.7
8/14/2021 6:00:00 AM 15.02 59.036 0.158 6.3 1.26 1.68
8/14/2021 6:15:00 AM 15.14 59.252 0.158 6.3 1.9 1.64
8/14/2021 6:30:00 AM 15.09 59.162 0.159 6.3 0.81 1.67
8/14/2021 6:45:00 AM 15.09 59.162 0.159 6.31 1.01 1.66
8/14/2021 7:00:00 AM 15.06 59.108 0.157 6.3 3.6 1.61
8/14/2021 7:15:00 AM 15.24 59.432 0.155 6.3 1.97 1.65
8/14/2021 7:30:00 AM 15.14 59.252 0.156 6.29 0.83 1.58
8/14/2021 7:45:00 AM 14.91 58.838 0.158 6.3 0.6 1.62
8/14/2021 8:00:00 AM 14.95 58.91 0.157 6.29 0.72 1.62
8/14/2021 8:15:00 AM 15.03 59.054 0.157 6.29 1.63 1.66
8/14/2021 8:30:00 AM 14.92 58.856 0.158 6.3 0.87 1.63
8/14/2021 8:45:00 AM 15.04 59.072 0.158 6.3 0.74 1.65
8/14/2021 9:00:00 AM 15.05 59.09 0.159 6.3 0.89 1.63
8/14/2021 9:15:00 AM 15.03 59.054 0.158 6.3 1.26 1.66
8/14/2021 9:30:00 AM 15.01 59.018 0.157 6.3 1.29 1.74
8/14/2021 9:45:00 AM 14.85 58.73 0.16 6.3 0.45 1.71
8/14/2021 10:00:00 AM 14.87 58.766 0.158 6.3 0.39 1.71
8/14/2021 10:15:00 AM 14.86 58.748 0.158 6.3 0.43 1.71
8/14/2021 10:30:00 AM 14.92 58.856 0.157 6.3 0.67 1.79
8/14/2021 10:45:00 AM 14.82 58.676 0.159 6.3 0.86 1.8
8/14/2021 11:00:00 AM 14.88 58.784 0.16 6.31 0.33 1.84
8/14/2021 11:15:00 AM 14.9 58.82 0.157 6.3 0.6 1.89
8/14/2021 11:30:00 AM 14.9 58.82 0.157 6.3 0.78 1.95
8/14/2021 11:45:00 AM 14.88 58.784 0.158 6.3 0.59 1.95
8/14/2021 12:00:00 PM 14.89 58.802 0.159 6.3 0.85 2
8/14/2021 12:15:00 PM 14.91 58.838 0.158 6.29 0.79 2.06
8/14/2021 12:30:00 PM 14.93 58.874 0.159 6.31 0.92 2.26
8/14/2021 12:45:00 PM 15 59 0.16 6.32 0.9 2.57
8/14/2021 1:00:00 PM 15.08 59.144 0.161 6.33 0.52 2.64
8/14/2021 1:15:00 PM 15.29 59.522 0.162 6.33 0.41 3.3
8/14/2021 1:30:00 PM 15.53 59.954 0.157 6.32 0.85 3.15
8/14/2021 1:45:00 PM 15.77 60.386 0.157 6.31 2.57 3.01
8/14/2021 2:00:00 PM 15.99 60.782 0.151 6.31 0.89 2.99
8/14/2021 2:15:00 PM 16.2 61.16 0.152 6.3 0.83 3.19
8/14/2021 2:30:00 PM 16.32 61.376 0.153 6.32 0.94 3.3
8/14/2021 2:45:00 PM 16.44 61.592 0.152 6.31 0.71 3.34
8/14/2021 3:00:00 PM 16.52 61.736 0.154 6.32 0.97 3.61
8/14/2021 3:15:00 PM 16.7 62.06 0.152 6.32 1.04 3.49
8/14/2021 3:30:00 PM 16.79 62.222 0.152 6.33 1.18 3.65
8/14/2021 3:45:00 PM 16.87 62.366 0.153 6.33 1.02 3.7
8/14/2021 4:00:00 PM 16.76 62.168 0.154 6.35 1.16 3.75
8/14/2021 4:15:00 PM 16.84 62.312 0.153 6.34 1.02 3.69
8/14/2021 4:30:00 PM 16.85 62.33 0.153 6.34 1.19 3.59
8/14/2021 4:45:00 PM 16.82 62.276 0.152 6.33 1.41 3.38
8/14/2021 5:00:00 PM 16.76 62.168 0.152 6.32 3.2 3.17
8/14/2021 5:15:00 PM 16.63 61.934 0.155 6.34 3.55 3.16
8/14/2021 5:30:00 PM 16.61 61.898 0.154 6.33 1.41 3.09
8/14/2021 5:45:00 PM 16.53 61.754 0.155 6.34 1.69 3.11
8/14/2021 6:00:00 PM 16.53 61.754 0.154 6.33 1.36 2.98
8/14/2021 6:15:00 PM 16.53 61.754 0.154 6.32 1.85 2.87
8/14/2021 6:30:00 PM 16.52 61.736 0.153 6.32 1.36 2.84
8/14/2021 6:45:00 PM 16.59 61.862 0.153 6.32 1.78 2.8
8/14/2021 7:00:00 PM 16.46 61.628 0.154 6.32 3.4 2.73
8/14/2021 7:15:00 PM 16.42 61.556 0.154 6.32 3.44 2.62
8/14/2021 7:30:00 PM 16.36 61.448 0.155 6.33 2.03 2.75
8/14/2021 7:45:00 PM 16.4 61.52 0.155 6.34 1.41 2.75
8/14/2021 8:00:00 PM 16.28 61.304 0.158 6.35 1.26 2.67
8/14/2021 8:15:00 PM 16.23 61.214 0.159 6.35 0.99 2.64
8/14/2021 8:30:00 PM 16.25 61.25 0.158 6.34 1.02 2.64
8/14/2021 8:45:00 PM 16.15 61.07 0.157 6.33 1.19 2.44
8/14/2021 9:00:00 PM 16.15 61.07 0.157 6.33 1.33 2.36
8/14/2021 9:15:00 PM 16.11 60.998 0.157 6.33 1.32 2.37
8/14/2021 9:30:00 PM 16.07 60.926 0.157 6.33 1.25 2.32
8/14/2021 9:45:00 PM 16.07 60.926 0.157 6.32 1.26 2.33
8/14/2021 10:00:00 PM 16 60.8 0.156 6.32 1.23 2.31
8/14/2021 10:15:00 PM 15.95 60.71 0.156 6.32 1.57 2.19
8/14/2021 10:30:00 PM 15.99 60.782 0.156 6.32 1.63 2.18
8/14/2021 10:45:00 PM 15.96 60.728 0.156 6.32 1.41 2.26
8/14/2021 11:00:00 PM 15.95 60.71 0.156 6.3 1.21 2.24
8/14/2021 11:15:00 PM 15.86 60.548 0.156 6.32 1.34 2.25
8/14/2021 11:30:00 PM 15.73 60.314 0.157 6.32 1.07 2.21
8/14/2021 11:45:00 PM 15.73 60.314 0.156 6.3 1.33 2.14
8/15/2021 12:00:00 AM 15.77 60.386 0.155 6.3 2.57 2
8/15/2021 12:15:00 AM 15.68 60.224 0.155 6.3 2.88 1.96
8/15/2021 12:30:00 AM 15.65 60.17 0.155 6.3 3.17 1.94
8/15/2021 12:45:00 AM 15.64 60.152 0.155 6.3 1.26 1.9
8/15/2021 1:00:00 AM 15.51 59.918 0.156 6.31 1.12 1.97
8/15/2021 1:15:00 AM 15.59 60.062 0.155 6.3 1.1 2.21
8/15/2021 1:30:00 AM 15.56 60.008 0.155 6.31 0.99 2.13
8/15/2021 1:45:00 AM 15.48 59.864 0.155 6.31 1.11 2.16
8/15/2021 2:00:00 AM 15.48 59.864 0.154 6.31 1.41 2.1
8/15/2021 2:15:00 AM 15.44 59.792 0.153 6.31 0.91 2.12
8/15/2021 2:30:00 AM 15.39 59.702 0.153 6.31 0.95 2.23
8/15/2021 2:45:00 AM 15.34 59.612 0.152 6.31 1.01 2.26
8/15/2021 3:00:00 AM 15.33 59.594 0.152 6.31 0.81 2.37
8/15/2021 3:15:00 AM 15.26 59.468 0.151 6.31 0.91 2.43
8/15/2021 3:30:00 AM 15.22 59.396 0.151 6.31 1.23 2.42
8/15/2021 3:45:00 AM 15.15 59.27 0.15 6.31 0.7 2.47
8/15/2021 4:00:00 AM 15.11 59.198 0.149 6.31 0.59 2.59
8/15/2021 4:15:00 AM 15.11 59.198 0.148 6.3 0.73 2.46
8/15/2021 4:30:00 AM 15.05 59.09 0.147 6.31 0.81 2.8
8/15/2021 4:45:00 AM 15.02 59.036 0.148 6.31 6.22 2.67
8/15/2021 5:00:00 AM 14.99 58.982 0.149 6.31 0.68 2.77
8/15/2021 5:15:00 AM 14.96 58.928 0.148 6.31 0.86 2.85
8/15/2021 5:30:00 AM 14.94 58.892 0.148 6.32 1.5 2.89
8/15/2021 5:45:00 AM 14.93 58.874 0.148 6.32 86.41 2.79
8/15/2021 6:00:00 AM 14.89 58.802 0.148 6.33 1.48 2.87
8/15/2021 6:15:00 AM 14.84 58.712 0.148 6.33 10.7 2.81
8/15/2021 6:30:00 AM 14.8 58.64 0.149 6.33 1.28 2.79
8/15/2021 6:45:00 AM 14.76 58.568 0.148 6.34 1.4 2.81
8/15/2021 7:00:00 AM 14.76 58.568 0.149 6.34 7.31 2.8
8/15/2021 7:15:00 AM 14.73 58.514 0.149 6.34 6.34 2.89
8/15/2021 7:30:00 AM 14.74 58.532 0.149 6.35 4.54 3
8/15/2021 7:45:00 AM 14.68 58.424 0.149 6.35 16.13 2.92
8/15/2021 8:00:00 AM 14.63 58.334 0.149 6.35 1.34 2.92
8/15/2021 8:15:00 AM 14.62 58.316 0.149 6.35 1.04 3.18
8/15/2021 8:30:00 AM 14.62 58.316 0.148 6.36 1.01 3.29
8/15/2021 8:45:00 AM 14.6 58.28 0.147 6.35 0.84 3.47
8/15/2021 9:00:00 AM 14.59 58.262 0.147 6.36 1.06 3.62
8/15/2021 9:15:00 AM 14.57 58.226 0.147 6.37 0.83 3.65
8/15/2021 9:30:00 AM 14.59 58.262 0.146 6.37 1.03 3.7
8/15/2021 9:45:00 AM 14.55 58.19 0.147 6.37 0.86 3.6
8/15/2021 10:00:00 AM 14.57 58.226 0.147 6.38 0.91 3.61
8/15/2021 10:15:00 AM 14.57 58.226 0.147 6.37 1.01 3.53
8/15/2021 10:30:00 AM 14.52 58.136 0.148 6.37 1.9 3.49
8/15/2021 10:45:00 AM 14.56 58.208 0.147 6.37 0.98 3.42
8/15/2021 11:00:00 AM 14.55 58.19 0.148 6.36 0.83 3.39
8/15/2021 11:15:00 AM 14.55 58.19 0.148 6.36 2.74 3.31
8/15/2021 11:30:00 AM 14.56 58.208 0.148 6.35 2 3.28
8/15/2021 11:45:00 AM 14.55 58.19 0.148 6.36 2.49 3.28
8/15/2021 12:00:00 PM 14.6 58.28 0.148 6.36 1.42 3.32
8/15/2021 12:15:00 PM 14.55 58.19 0.149 6.36 1.15 3.38
8/15/2021 12:30:00 PM 14.61 58.298 0.149 6.37 1.23 3.4
8/15/2021 12:45:00 PM 14.64 58.352 0.149 6.35 0.79 3.33
8/15/2021 1:00:00 PM 14.74 58.532 0.141 6.37 3.83 3.34
8/15/2021 1:15:00 PM 14.84 58.712 0.147 6.35 1.26 3.63
8/15/2021 1:30:00 PM 14.95 58.91 0.148 6.33 1.24 3.79
8/15/2021 1:45:00 PM 15.03 59.054 0.147 6.36 1.12 3.77
8/15/2021 2:00:00 PM 15.08 59.144 0.147 6.36 0.87 3.85
8/15/2021 2:15:00 PM 15.14 59.252 0.148 6.36 1.13 3.98
8/15/2021 2:30:00 PM 15.21 59.378 0.148 6.36 1.17 3.94
8/15/2021 2:45:00 PM 15.28 59.504 0.148 6.37 0.99 4.07
8/15/2021 3:00:00 PM 15.35 59.63 0.149 6.38 1.7 4.08
8/15/2021 3:15:00 PM 15.44 59.792 0.149 6.38 1 4.31
8/15/2021 3:30:00 PM 15.49 59.882 0.152 6.39 1.03 4.42
8/15/2021 3:45:00 PM 15.54 59.972 0.151 6.38 0.97 4.32
8/15/2021 4:00:00 PM 15.57 60.026 0.152 6.4 1.23 4.35
8/15/2021 4:15:00 PM 15.59 60.062 0.152 6.4 0.92 4.34
8/15/2021 4:30:00 PM 15.58 60.044 0.152 6.4 0.95 4.3
8/15/2021 4:45:00 PM 15.61 60.098 0.153 6.4 1.44 4.39
8/15/2021 5:00:00 PM 15.64 60.152 0.154 6.4 1.1 4.29
8/15/2021 5:15:00 PM 15.65 60.17 0.154 6.4 0.95 4.28
8/15/2021 5:30:00 PM 15.63 60.134 0.154 6.4 1.07 4.29
8/15/2021 5:45:00 PM 15.6 60.08 0.154 6.4 0.97 4.26
8/15/2021 6:00:00 PM 15.62 60.116 0.154 6.4 1.19 4.26
8/15/2021 6:15:00 PM 15.59 60.062 0.154 6.39 0.84 4.09
8/15/2021 6:30:00 PM 15.6 60.08 0.154 6.39 2.8 3.88
8/15/2021 6:45:00 PM 15.56 60.008 0.154 6.38 2.82 3.72
8/15/2021 7:00:00 PM 15.52 59.936 0.155 6.38 2.93 3.68
8/15/2021 7:15:00 PM 15.51 59.918 0.155 6.38 1.71 3.55
8/15/2021 7:30:00 PM 15.5 59.9 0.156 6.38 0.91 3.69
8/15/2021 7:45:00 PM 15.47 59.846 0.156 6.39 0.83 3.56
8/15/2021 8:00:00 PM 15.45 59.81 0.157 6.38 0.91 3.61
8/15/2021 8:15:00 PM 15.43 59.774 0.157 6.4 0.83 3.6
8/15/2021 8:30:00 PM 15.4 59.72 0.157 6.38 0.84 3.37
8/15/2021 8:45:00 PM 15.42 59.756 0.158 6.38 0.94 3.32
8/15/2021 9:00:00 PM 15.48 59.864 0.157 6.4 1.13 3.45
8/15/2021 9:15:00 PM 15.38 59.684 0.157 6.38 1.48 3.21
8/15/2021 9:30:00 PM 15.4 59.72 0.158 6.39 1.25 3.06
8/15/2021 9:45:00 PM 15.36 59.648 0.157 6.38 1.47 3
8/15/2021 10:00:00 PM 15.32 59.576 0.158 6.37 0.87 2.89
8/15/2021 10:15:00 PM 15.3 59.54 0.157 6.37 1.12 2.87
8/15/2021 10:30:00 PM 15.34 59.612 0.156 6.36 1.17 2.78
8/15/2021 10:45:00 PM 15.24 59.432 0.156 6.34 1.7 2.71
8/15/2021 11:00:00 PM 15.27 59.486 0.156 6.35 1.12 2.65
8/15/2021 11:15:00 PM 15.27 59.486 0.156 6.35 1.19 2.64
8/15/2021 11:30:00 PM 15.28 59.504 0.155 6.35 1.56 2.72
8/15/2021 11:45:00 PM 15.24 59.432 0.156 6.35 1.27 2.76
8/16/2021 12:00:00 AM 15.23 59.414 0.156 6.36 1.59 2.76
8/16/2021 12:15:00 AM 15.18 59.324 0.156 6.35 1.3 2.65
8/16/2021 12:30:00 AM 15.17 59.306 0.156 6.36 1.27 2.67
8/16/2021 12:45:00 AM 15.11 59.198 0.155 6.36 1.18 2.62
8/16/2021 1:00:00 AM 15.09 59.162 0.153 6.34 1.29 2.73
8/16/2021 1:15:00 AM 15.12 59.216 0.153 6.35 1.15 2.85
8/16/2021 1:30:00 AM 15.03 59.054 0.152 6.34 1 2.79
8/16/2021 1:45:00 AM 15.01 59.018 0.153 6.35 0.96 2.83
8/16/2021 2:00:00 AM 15 59 0.152 6.34 1.26 2.8
8/16/2021 2:15:00 AM 14.95 58.91 0.152 6.33 1.33 2.87
8/16/2021 2:30:00 AM 14.94 58.892 0.151 6.34 0.87 2.85
8/16/2021 2:45:00 AM 14.86 58.748 0.151 6.32 0.85 2.76
8/16/2021 3:00:00 AM 14.84 58.712 0.151 6.34 0.97 2.83

These are provisional data and have not been subject to a quality assurance process, but rather are the raw data reported by the instrument.
H: value is above sensor operating range
L: value is below sensor operating range
Offline: station is not reporting data
NC: parameter is not collected at site

Data Availability & Limitations

Uncertainty and potential for error can be associated with environmental monitoring data. Provisional data have not been subject to a quality assurance process, but rather are the raw data reported by the instrument. Data users are cautioned to consider carefully the provisional nature of the information before using it for decisions that concern personal or public safety or the conduct of business that involves substantial monetary or operational consequences.

Approved data are currently available by request by emailing: srbc@srbc.net. Approved data have been subject to a quality assurance process to correct for equipment or fouling drift. Data recorded during equipment malfunctions have been removed.

View Historical Stations that have been discontinued.